Lorenzo, Idaho
Current Conditions -  °F | °C
As of 2:53 AM on Friday 24 Oct 2014 (Local Time) from KRXE Reporting Station
Overcast Overcast  
Wind Chill: 52°   Ceiling: 10000
Heat Index: 52°   Visibility: 10mi
Dew Point: 33°   Wind: 14mph
Humidity: 49%   Direction: 180°S
Pressure: 30.11"   Gusts: 22mph
Location:  43.6749°N, 111.89°W
Report Text: KRXE 240853Z AUTO 18012G19KT 10SM OVC100 11/01 A3011 RMK AO2 SLP172 T01110006 56004
Loading
Personal Weather Stations






























Interactive Weather Map
Tropical Storm Tracking
New forecast layout! Learn more

10-Day Weather Forecast

Advertisements
Track Severe Weather on mobile